Terminal Aerodrome Forecast
Issued by NWS

Current Version | Previous Version | Text Only | Print | Product List | Glossary On
Versions: 1 2 3 4 5 6 7 8 9 10 11 12 13
816
FTUS46 KPDT 111135
TAFDLS
TAF
KDLS 111135Z 1112/1212 26004KT 6SM BR BKN100
     FM111600 08003KT 5SM BR VCSH SCT070 OVC100
     FM111900 09005KT 5SM -RA BKN050 OVC070
     FM120000 08004KT P6SM VCSH BKN050 OVC100 PROB30 1203/1209 5SM
      -RA BR OVC050
     FM120900 08003KT 5SM -RA BR OVC050=

USA.gov is the U.S. government's official web portal to all federal, state and local government web resources and services.